Time;durP1;ratioP1;P1;durP2;ratioP2;P2;SDS_P1;SDS_P2;PMS_P1;PMS_P2;Temp;Humidity;BMP_temperature;BMP_pressure;BME280_temperature;BME280_humidity;BME280_pressure;Samples;Min_cycle;Max_cycle;Signal;HPM_P1;HPM_P2
2023/04/16 00:03:54;;;;;;;2.10;0.70;;;;;;;18.91;31.78;102147.66;16115148;19;129754;-46
2023/04/16 00:09:17;;;;;;;2.58;0.65;;;;;;;18.88;31.52;102153.63;16119919;19;131263;-42
2023/04/16 00:14:39;;;;;;;2.15;0.57;;;;;;;18.87;31.48;102140.84;16119084;19;131131;-43
2023/04/16 00:20:01;;;;;;;2.30;0.75;;;;;;;18.86;31.71;102144.69;16118739;19;130561;-45
2023/04/16 00:25:23;;;;;;;4.13;0.47;;;;;;;18.84;31.67;102146.81;16117709;19;130549;-43
2023/04/16 00:30:44;;;;;;;1.98;0.60;;;;;;;18.83;31.95;102151.53;16114812;19;130525;-45
2023/04/16 00:36:06;;;;;;;2.67;0.63;;;;;;;18.82;31.79;102148.97;16114580;19;129675;-44
2023/04/16 00:41:28;;;;;;;2.97;0.50;;;;;;;18.82;31.70;102151.75;16112875;19;129880;-43
2023/04/16 00:46:50;;;;;;;2.58;0.50;;;;;;;18.80;31.86;102148.34;16115177;19;131265;-45
2023/04/16 00:52:12;;;;;;;1.67;0.30;;;;;;;18.79;31.63;102138.31;16114257;19;131024;-44
2023/04/16 00:57:34;;;;;;;1.33;0.40;;;;;;;18.76;32.05;102151.53;16108641;19;129147;-42
2023/04/16 01:02:56;;;;;;;2.47;0.43;;;;;;;18.75;31.70;102154.53;16112758;19;129400;-45
2023/04/16 01:08:20;;;;;;;2.33;0.70;;;;;;;18.73;31.98;102157.50;16112626;19;129899;-41
2023/04/16 01:13:42;;;;;;;2.58;0.50;;;;;;;18.72;31.92;102152.19;16112110;19;129475;-46
2023/04/16 01:19:04;;;;;;;2.10;0.50;;;;;;;18.71;32.15;102147.72;16113874;19;129179;-45
2023/04/16 01:24:26;;;;;;;1.98;0.47;;;;;;;18.70;32.08;102151.56;16114420;19;132892;-44
2023/04/16 01:29:48;;;;;;;3.05;0.50;;;;;;;18.68;31.80;102160.09;16114300;19;133029;-45
2023/04/16 01:35:09;;;;;;;2.33;0.57;;;;;;;18.68;32.05;102156.47;16108852;19;130548;-45
2023/04/16 01:40:31;;;;;;;1.63;0.28;;;;;;;18.66;32.04;102156.69;16112165;19;129752;-42
2023/04/16 01:46:10;;;;;;;2.95;0.57;;;;;;;18.65;31.89;102157.75;16104778;19;130467;-43
2023/04/16 01:51:32;;;;;;;4.32;0.70;;;;;;;18.63;32.01;102146.03;16111829;19;131211;-51
2023/04/16 01:56:54;;;;;;;2.67;0.60;;;;;;;18.60;32.01;102163.94;16110851;19;129322;-50
2023/04/16 02:02:16;;;;;;;1.23;0.40;;;;;;;18.59;32.50;102155.81;16111277;19;130433;-52
2023/04/16 02:07:38;;;;;;;2.10;0.60;;;;;;;18.59;32.20;102166.91;16111971;19;129592;-53
2023/04/16 02:13:00;;;;;;;4.03;0.70;;;;;;;18.58;32.38;102156.94;16106731;19;129573;-48
2023/04/16 02:18:22;;;;;;;2.50;0.77;;;;;;;18.57;32.50;102174.63;16113669;19;134128;-56
2023/04/16 02:23:46;;;;;;;1.88;0.43;;;;;;;18.56;32.63;102162.66;16111845;19;129363;-47
2023/04/16 02:29:08;;;;;;;0.93;0.30;;;;;;;18.55;32.49;102166.50;16112380;19;131016;-51
2023/04/16 02:34:32;;;;;;;1.13;0.40;;;;;;;18.55;32.31;102166.50;16109590;19;131826;-53
2023/04/16 02:39:54;;;;;;;1.05;0.40;;;;;;;18.54;32.69;102167.56;16107341;19;130444;-51
2023/04/16 02:45:16;;;;;;;2.53;0.40;;;;;;;18.53;32.62;102163.09;16103495;19;130599;-45
2023/04/16 02:50:38;;;;;;;0.60;0.30;;;;;;;18.51;32.79;102165.25;16109203;19;130089;-53
2023/04/16 02:56:00;;;;;;;2.35;0.50;;;;;;;18.51;32.56;102169.94;16111886;19;129788;-45
2023/04/16 03:01:22;;;;;;;2.28;0.40;;;;;;;18.49;32.76;102167.38;16102696;19;132108;-42
2023/04/16 03:06:44;;;;;;;2.08;0.47;;;;;;;18.49;32.50;102166.50;16107754;19;133353;-42
2023/04/16 03:12:06;;;;;;;1.85;0.55;;;;;;;18.48;32.70;102173.13;16108595;19;130393;-43
2023/04/16 03:17:28;;;;;;;1.27;0.40;;;;;;;18.47;32.60;102172.28;16106671;19;131597;-43
2023/04/16 03:22:51;;;;;;;1.52;0.60;;;;;;;18.46;33.06;102176.94;16113434;19;130026;-44
2023/04/16 03:28:13;;;;;;;1.85;0.47;;;;;;;18.44;32.87;102176.34;16119286;19;129677;-41
2023/04/16 03:33:35;;;;;;;1.73;0.50;;;;;;;18.43;32.94;102176.53;16120467;19;129653;-44
2023/04/16 03:38:58;;;;;;;1.95;0.50;;;;;;;18.42;32.71;102172.94;16125846;19;130001;-45
2023/04/16 03:44:20;;;;;;;1.88;0.40;;;;;;;18.41;33.20;102181.44;16119538;19;130743;-42
2023/04/16 03:49:42;;;;;;;2.17;0.55;;;;;;;18.40;33.22;102179.75;16119034;19;129680;-43
2023/04/16 03:55:04;;;;;;;1.67;0.70;;;;;;;18.36;32.97;102170.97;16120716;19;131771;-42
2023/04/16 04:00:27;;;;;;;3.03;0.75;;;;;;;18.36;32.81;102179.28;16121560;19;131199;-42
2023/04/16 04:05:49;;;;;;;1.83;0.50;;;;;;;18.34;33.20;102181.41;16117532;19;131532;-44
2023/04/16 04:11:11;;;;;;;2.05;0.65;;;;;;;18.31;33.03;102181.84;16120397;19;129396;-42
2023/04/16 04:16:33;;;;;;;4.40;0.77;;;;;;;18.31;33.11;102177.16;16115336;19;130491;-43
2023/04/16 04:21:55;;;;;;;4.15;1.00;;;;;;;18.29;33.04;102179.28;16117544;19;129461;-42
2023/04/16 04:27:17;;;;;;;1.85;0.80;;;;;;;18.27;33.29;102169.50;16116583;19;130313;-44
2023/04/16 04:32:39;;;;;;;1.48;0.50;;;;;;;18.27;33.30;102181.44;16113784;19;129735;-42
2023/04/16 04:38:01;;;;;;;2.05;0.65;;;;;;;18.26;33.21;102187.16;16119134;19;129108;-46
2023/04/16 04:43:23;;;;;;;2.65;0.75;;;;;;;18.24;33.50;102192.06;16117609;19;131012;-42
2023/04/16 04:48:45;;;;;;;1.90;0.60;;;;;;;18.22;33.15;102189.53;16116093;19;131710;-43
2023/04/16 04:54:07;;;;;;;2.38;0.80;;;;;;;18.22;33.15;102200.59;16118359;19;129693;-42
2023/04/16 04:59:29;;;;;;;2.38;0.80;;;;;;;18.20;33.42;102196.34;16114437;19;129428;-45
2023/04/16 05:04:51;;;;;;;1.25;0.68;;;;;;;18.19;33.42;102206.56;16114305;19;131250;-42
2023/04/16 05:10:13;;;;;;;1.90;0.73;;;;;;;18.19;33.30;102216.78;16115178;19;129592;-44
2023/04/16 05:15:35;;;;;;;1.95;0.60;;;;;;;18.18;33.40;102210.38;16113749;19;130335;-45
2023/04/16 05:20:57;;;;;;;1.08;0.47;;;;;;;18.17;33.29;102211.44;16113686;19;130216;-43
2023/04/16 05:26:19;;;;;;;1.70;0.50;;;;;;;18.15;33.43;102211.69;16114855;19;132047;-43
2023/04/16 05:31:41;;;;;;;1.63;0.57;;;;;;;18.14;33.60;102221.03;16115673;19;129414;-46
2023/04/16 05:37:03;;;;;;;2.85;0.80;;;;;;;18.14;33.39;102228.50;16110430;19;129258;-43
2023/04/16 05:42:25;;;;;;;1.75;0.73;;;;;;;18.16;33.74;102223.59;16110797;19;131483;-48
2023/04/16 05:47:46;;;;;;;2.80;0.50;;;;;;;18.21;33.55;102226.59;16112598;19;129637;-42
2023/04/16 05:53:08;;;;;;;1.10;0.50;;;;;;;18.52;33.70;102229.81;16114770;19;129721;-42
2023/04/16 05:58:30;;;;;;;2.50;0.60;;;;;;;18.86;33.15;102233.41;16109844;19;131208;-44
2023/04/16 06:03:52;;;;;;;1.42;0.52;;;;;;;19.15;33.16;102231.22;16110672;19;131044;-42
2023/04/16 06:09:14;;;;;;;1.10;0.60;;;;;;;19.30;32.94;102234.63;16111252;19;129582;-45
2023/04/16 06:14:36;;;;;;;2.50;0.52;;;;;;;19.38;32.77;102231.59;16111364;19;131086;-41
2023/04/16 06:19:58;;;;;;;1.65;0.40;;;;;;;19.41;32.62;102237.78;16108652;19;130812;-44
2023/04/16 06:25:20;;;;;;;3.85;0.75;;;;;;;19.37;32.65;102246.53;16108791;19;130776;-43
2023/04/16 06:30:42;;;;;;;2.63;0.70;;;;;;;19.32;32.97;102235.22;16110645;19;129334;-44
2023/04/16 06:36:05;;;;;;;1.75;0.50;;;;;;;19.24;33.01;102252.13;16102700;19;131144;-45
2023/04/16 06:41:27;;;;;;;2.80;0.70;;;;;;;19.18;32.74;102264.06;16112762;19;129520;-43
2023/04/16 06:46:49;;;;;;;2.10;0.60;;;;;;;19.11;33.16;102264.09;16111269;19;131521;-42
2023/04/16 06:52:11;;;;;;;0.88;0.43;;;;;;;19.04;33.30;102272.44;16109364;19;131155;-45
2023/04/16 06:57:34;;;;;;;4.03;0.70;;;;;;;18.98;33.16;102275.22;16110081;19;130515;-41
2023/04/16 07:03:00;;;;;;;4.47;0.82;;;;;;;18.90;33.68;102274.34;16128524;19;131452;-46
2023/04/16 07:08:22;;;;;;;2.95;0.88;;;;;;;18.84;33.55;102282.69;16126979;19;130687;-43
2023/04/16 07:13:44;;;;;;;2.70;0.75;;;;;;;18.76;33.72;102279.06;16123925;19;132075;-45
2023/04/16 07:19:05;;;;;;;10.57;1.30;;;;;;;18.70;34.27;102291.03;16122462;19;129285;-42
2023/04/16 07:24:27;;;;;;;3.33;0.88;;;;;;;18.65;34.38;102293.56;16120487;19;131378;-43
2023/04/16 07:29:49;;;;;;;3.42;0.70;;;;;;;18.62;34.11;102288.44;16123786;19;130115;-43
2023/04/16 07:35:11;;;;;;;4.95;0.82;;;;;;;18.63;34.55;102292.09;16126590;19;129785;-42
2023/04/16 07:40:34;;;;;;;6.05;0.98;;;;;;;18.64;34.19;102300.19;16122361;19;130741;-44
2023/04/16 07:45:56;;;;;;;5.32;0.90;;;;;;;18.69;34.40;102294.88;16121304;19;131697;-44
2023/04/16 07:51:18;;;;;;;9.35;1.35;;;;;;;18.76;34.43;102311.50;16124108;19;131335;-42
2023/04/16 07:56:40;;;;;;;3.30;0.90;;;;;;;18.84;34.24;102307.63;16117843;19;129821;-42
2023/04/16 08:02:03;;;;;;;6.25;1.08;;;;;;;18.94;34.28;102323.84;16114578;19;130015;-41
2023/04/16 08:07:25;;;;;;;3.00;0.90;;;;;;;19.01;34.37;102317.22;16118310;19;130364;-43
2023/04/16 08:12:47;;;;;;;2.70;0.80;;;;;;;19.08;34.24;102329.16;16118288;19;130286;-44
2023/04/16 08:18:14;;;;;;;8.63;0.90;;;;;;;19.16;34.18;102338.34;16115211;19;129708;-43
2023/04/16 08:23:36;;;;;;;6.20;1.40;;;;;;;19.20;34.09;102334.91;16118513;19;129929;-45
2023/04/16 08:28:58;;;;;;;5.70;1.00;;;;;;;19.25;34.42;102334.28;16118249;19;130437;-43
2023/04/16 08:34:19;;;;;;;3.58;1.05;;;;;;;19.26;34.46;102338.78;16116448;19;130018;-44
2023/04/16 08:39:41;;;;;;;3.85;1.00;;;;;;;19.25;34.62;102344.56;16115207;19;132131;-42
2023/04/16 08:45:16;;;;;;;5.45;1.20;;;;;;;19.28;34.89;102350.53;16116877;19;130522;-44
2023/04/16 08:50:40;;;;;;;7.57;1.23;;;;;;;19.27;34.67;102356.25;16114485;19;131019;-43
2023/04/16 08:56:07;;;;;;;7.18;1.08;;;;;;;19.24;34.74;102357.56;16115685;19;130266;-44
2023/04/16 09:01:29;;;;;;;;;;;;;;;19.25;34.58;102358.44;16116255;19;129850;-42
2023/04/16 09:06:52;;;;;;;4.90;1.00;;;;;;;19.51;34.58;102368.63;16116486;19;130030;-42
2023/04/16 09:12:14;;;;;;;7.05;0.85;;;;;;;19.77;34.39;102375.16;16119959;19;129429;-45
2023/04/16 09:17:36;;;;;;;2.97;0.90;;;;;;;19.97;33.77;102367.59;16116023;19;131263;-44
2023/04/16 09:22:58;;;;;;;3.30;0.77;;;;;;;20.15;33.93;102357.72;16114040;19;130388;-42
2023/04/16 09:28:39;;;;;;;4.68;1.45;;;;;;;20.27;33.50;102369.84;16116490;19;129365;-43
2023/04/16 09:34:06;;;;;;;5.03;1.05;;;;;;;20.27;33.50;102378.19;16114510;19;131688;-46
2023/04/16 09:39:28;;;;;;;2.47;0.90;;;;;;;20.22;33.47;102380.75;16115615;19;131893;-43
2023/04/16 09:44:51;;;;;;;7.38;1.17;;;;;;;20.15;33.37;102388.28;16109766;19;129936;-44
2023/04/16 09:50:15;;;;;;;4.15;1.10;;;;;;;20.09;33.40;102394.72;16109658;19;131188;-44
2023/04/16 09:55:39;;;;;;;4.57;1.10;;;;;;;19.99;33.63;102400.72;16112103;19;131127;-44
2023/04/16 10:01:02;;;;;;;4.22;1.20;;;;;;;19.85;33.75;102405.47;16109657;19;131081;-43
2023/04/16 10:06:26;;;;;;;7.00;1.35;;;;;;;19.78;34.15;102405.47;16109408;19;129532;-42
2023/04/16 10:11:48;;;;;;;2.33;1.27;;;;;;;19.76;34.07;102407.63;16114040;19;129385;-45
2023/04/16 10:17:10;;;;;;;9.68;1.40;;;;;;;19.76;33.87;102412.31;16109707;19;130588;-44
2023/04/16 10:22:33;;;;;;;8.70;1.63;;;;;;;19.76;34.00;102413.16;16114292;19;130250;-45
2023/04/16 10:27:56;;;;;;;8.07;1.58;;;;;;;19.79;34.43;102420.22;16109234;19;129502;-44
2023/04/16 10:33:22;;;;;;;5.97;1.50;;;;;;;19.86;34.16;102421.06;16119781;19;130321;-44
2023/04/16 10:38:51;;;;;;;4.90;1.60;;;;;;;20.16;33.95;102419.69;16123963;19;131101;-39
2023/04/16 10:44:16;;;;;;;5.00;1.38;;;;;;;20.47;33.55;102416.13;16125175;19;129487;-39
2023/04/16 10:49:39;;;;;;;6.55;1.33;;;;;;;20.79;33.13;102413.41;16117314;19;129669;-42
2023/04/16 10:55:01;;;;;;;7.13;1.40;;;;;;;21.09;32.88;102415.50;16126372;19;129795;-44
2023/04/16 11:00:23;;;;;;;3.17;1.00;;;;;;;21.33;32.33;102407.34;16122998;19;131922;-43
2023/04/16 11:05:48;;;;;;;3.60;1.00;;;;;;;21.55;32.32;102409.75;16120034;19;129549;-40
2023/04/16 11:11:09;;;;;;;4.73;1.37;;;;;;;21.71;32.28;102416.66;16122867;19;130013;-40
2023/04/16 11:16:31;;;;;;;3.78;1.20;;;;;;;21.85;31.67;102414.56;16122000;19;129751;-40
2023/04/16 11:21:54;;;;;;;2.50;1.38;;;;;;;21.95;31.95;102410.16;16123718;19;130156;-41
2023/04/16 11:27:16;;;;;;;3.47;1.52;;;;;;;22.00;31.95;102403.88;16121689;19;129666;-41
2023/04/16 11:32:38;;;;;;;10.77;1.63;;;;;;;21.97;31.58;102407.97;16118833;19;129772;-40
2023/04/16 11:38:05;;;;;;;4.15;1.40;;;;;;;21.92;31.80;102426.47;16104057;19;130050;-39
2023/04/16 11:43:27;;;;;;;4.88;1.98;;;;;;;21.86;31.74;102421.84;16115893;19;129927;-40
2023/04/16 11:48:52;;;;;;;4.32;1.40;;;;;;;21.79;31.71;102411.59;16119358;19;131398;-40
2023/04/16 11:54:21;;;;;;;12.18;1.80;;;;;;;21.71;31.98;102420.28;16117053;19;131960;-40
2023/04/16 11:59:46;;;;;;;4.22;1.40;;;;;;;21.57;31.92;102419.59;16118035;19;129940;-40
2023/04/16 12:05:33;;;;;;;9.23;1.65;;;;;;;21.48;32.46;102420.91;16114131;19;129814;-41
2023/04/16 12:10:56;;;;;;;10.40;1.40;;;;;;;21.39;32.79;102425.09;16117786;19;128932;-39
2023/04/16 12:16:19;;;;;;;5.03;1.58;;;;;;;21.29;32.77;102420.06;16116539;19;129153;-42
2023/04/16 12:21:43;;;;;;;4.28;2.05;;;;;;;21.17;32.71;102429.13;16118123;19;131782;-40
2023/04/16 12:27:05;;;;;;;4.82;1.30;;;;;;;21.05;32.86;102433.72;16117652;19;130545;-40
2023/04/16 12:32:27;;;;;;;3.17;1.38;;;;;;;20.95;33.20;102427.81;16104913;19;130530;-40
2023/04/16 12:37:49;;;;;;;4.05;1.40;;;;;;;20.86;33.06;102430.88;16096044;19;131089;-41
2023/04/16 12:43:11;;;;;;;3.60;1.60;;;;;;;20.79;33.27;102438.44;16097522;19;129743;-40
2023/04/16 12:48:34;;;;;;;4.70;1.60;;;;;;;20.70;33.27;102436.94;16099268;19;131195;-41
2023/04/16 12:53:56;;;;;;;6.50;1.73;;;;;;;20.60;33.27;102443.84;16116477;19;131454;-42
2023/04/16 12:59:18;;;;;;;4.05;1.58;;;;;;;20.50;33.53;102443.47;16117107;19;129344;-40
2023/04/16 13:04:39;;;;;;;3.28;1.58;;;;;;;20.39;33.40;102449.75;16118074;19;130322;-42
2023/04/16 13:10:01;;;;;;;2.95;1.40;;;;;;;20.31;33.49;102436.09;16118733;19;131590;-40
2023/04/16 13:15:23;;;;;;;3.60;1.25;;;;;;;20.23;33.58;102442.75;16118798;19;129258;-40
2023/04/16 13:20:45;;;;;;;3.50;1.25;;;;;;;20.14;34.01;102440.22;16118042;19;129171;-42
2023/04/16 13:26:07;;;;;;;3.13;1.40;;;;;;;20.06;34.10;102446.03;16118649;19;129433;-38
2023/04/16 13:31:29;;;;;;;3.67;1.75;;;;;;;19.98;33.92;102449.84;16117056;19;129365;-40
2023/04/16 13:36:51;;;;;;;3.72;1.58;;;;;;;19.93;34.06;102435.78;16116485;19;129861;-41
2023/04/16 13:42:13;;;;;;;3.13;1.30;;;;;;;19.88;33.84;102445.84;16114173;19;129401;-40
2023/04/16 13:47:35;;;;;;;3.00;1.48;;;;;;;19.81;34.17;102441.16;16115073;19;130848;-37
2023/04/16 13:52:57;;;;;;;4.43;1.80;;;;;;;19.76;34.16;102440.94;16116955;19;129445;-40
2023/04/16 13:58:19;;;;;;;3.90;1.52;;;;;;;19.69;33.95;102449.28;16112061;19;132152;-42
2023/04/16 14:03:41;;;;;;;3.15;1.63;;;;;;;19.64;34.07;102443.53;16112239;19;130014;-41
2023/04/16 14:09:03;;;;;;;4.85;1.58;;;;;;;19.59;34.11;102454.44;16115744;19;131149;-39
2023/04/16 14:14:25;;;;;;;3.63;1.77;;;;;;;19.53;34.16;102450.59;16113717;19;129038;-40
2023/04/16 14:19:47;;;;;;;3.95;1.80;;;;;;;19.49;34.50;102449.34;16110850;19;129477;-40
2023/04/16 14:25:09;;;;;;;4.72;1.73;;;;;;;19.52;34.48;102445.25;16113611;19;130312;-40
2023/04/16 14:30:31;;;;;;;3.83;1.73;;;;;;;19.62;34.31;102447.63;16112294;19;129299;-40
2023/04/16 14:35:53;;;;;;;1.77;1.20;;;;;;;19.78;34.57;102443.50;16109058;19;129598;-40
2023/04/16 14:41:15;;;;;;;1.95;1.23;;;;;;;19.91;34.08;102450.94;16110379;19;129608;-43
2023/04/16 14:46:37;;;;;;;5.03;1.25;;;;;;;20.02;34.04;102446.69;16113101;19;131456;-42
2023/04/16 14:52:01;;;;;;;3.47;1.40;;;;;;;20.09;33.89;102440.03;16114419;19;133478;-42
2023/04/16 14:57:23;;;;;;;3.10;1.38;;;;;;;20.17;33.62;102435.28;16112399;19;129135;-41
2023/04/16 15:02:46;;;;;;;2.88;1.20;;;;;;;20.19;33.95;102425.66;16108543;19;130666;-41
2023/04/16 15:08:09;;;;;;;2.63;1.27;;;;;;;20.21;33.72;102434.63;16103672;19;129616;-42
2023/04/16 15:13:32;;;;;;;2.92;1.23;;;;;;;20.18;33.56;102432.31;16101979;19;130017;-40
2023/04/16 15:18:54;;;;;;;2.58;1.20;;;;;;;20.12;33.75;102428.47;16098134;19;130967;-41
2023/04/16 15:24:16;;;;;;;3.60;1.30;;;;;;;20.06;33.73;102432.13;16120992;19;130528;-38
2023/04/16 15:29:38;;;;;;;2.55;1.30;;;;;;;20.16;34.32;102430.81;16119202;19;131459;-45
2023/04/16 15:35:02;;;;;;;6.95;1.80;;;;;;;20.31;34.26;102427.75;16119762;19;129839;-40
2023/04/16 15:40:24;;;;;;;3.85;1.33;;;;;;;20.47;33.99;102426.41;16122227;19;129578;-41
2023/04/16 15:45:45;;;;;;;5.97;1.73;;;;;;;20.60;33.71;102434.66;16116830;19;130883;-41
2023/04/16 15:51:08;;;;;;;5.35;1.63;;;;;;;20.66;33.54;102430.13;16121517;19;130643;-39
2023/04/16 15:56:30;;;;;;;5.47;1.65;;;;;;;20.67;33.42;102429.91;16120498;19;129629;-41
2023/04/16 16:01:52;;;;;;;4.68;1.55;;;;;;;20.63;33.32;102436.97;16119037;19;129444;-40
2023/04/16 16:07:18;;;;;;;3.95;1.73;;;;;;;20.55;33.68;102434.47;16120004;19;131302;-39
2023/04/16 16:12:40;;;;;;;3.17;1.83;;;;;;;20.47;33.89;102427.22;16118484;19;130181;-40
2023/04/16 16:18:02;;;;;;;3.30;1.75;;;;;;;20.36;33.98;102431.59;16116846;19;130054;-42
2023/04/16 16:23:24;;;;;;;7.40;1.85;;;;;;;20.31;33.99;102422.22;16116189;19;133679;-40
2023/04/16 16:28:46;;;;;;;5.70;1.88;;;;;;;20.30;33.79;102432.44;16115568;19;130153;-40
2023/04/16 16:34:08;;;;;;;3.83;1.75;;;;;;;20.32;33.79;102432.22;16113811;19;130265;-38
2023/04/16 16:39:40;;;;;;;4.10;1.80;;;;;;;20.31;34.10;102431.38;16119174;19;130422;-40
2023/04/16 16:45:04;;;;;;;5.38;1.52;;;;;;;20.31;33.72;102428.59;16116679;19;129856;-38
2023/04/16 16:50:26;;;;;;;4.78;1.70;;;;;;;20.28;33.99;102429.03;16121086;19;129405;-39
2023/04/16 16:55:48;;;;;;;2.72;1.88;;;;;;;20.22;33.88;102428.00;16119275;19;131340;-40
2023/04/16 17:01:10;;;;;;;5.90;1.90;;;;;;;20.17;34.20;102422.25;16118480;19;129428;-40
2023/04/16 17:06:32;;;;;;;5.40;1.80;;;;;;;20.11;34.04;102425.91;16119311;19;131174;-40
2023/04/16 17:11:55;;;;;;;3.65;1.95;;;;;;;20.09;34.42;102430.81;16112437;19;130626;-41
2023/04/16 17:17:17;;;;;;;8.35;1.67;;;;;;;20.20;34.58;102429.31;16115969;19;129431;-42
2023/04/16 17:22:39;;;;;;;5.43;2.05;;;;;;;20.31;34.61;102427.75;16105604;19;131299;-41
2023/04/16 17:28:02;;;;;;;6.07;2.45;;;;;;;20.37;34.52;102433.25;16103086;19;130232;-41
2023/04/16 17:33:23;;;;;;;5.50;1.73;;;;;;;20.47;34.10;102427.22;16104217;19;129495;-41
2023/04/16 17:38:45;;;;;;;3.72;1.70;;;;;;;20.70;33.86;102421.13;16109706;19;131366;-41
2023/04/16 17:44:07;;;;;;;4.07;1.60;;;;;;;20.97;33.56;102434.00;16106499;19;130128;-40
2023/04/16 17:49:32;;;;;;;3.33;1.40;;;;;;;21.13;33.59;102430.66;16099419;19;129937;-40
2023/04/16 17:54:59;;;;;;;4.85;1.55;;;;;;;21.22;33.34;102434.03;16103599;19;130722;-40
2023/04/16 18:00:21;;;;;;;2.65;1.33;;;;;;;21.26;32.94;102440.81;16106474;19;130343;-41
2023/04/16 18:05:46;;;;;;;4.13;1.90;;;;;;;21.25;33.35;102441.91;16103484;19;130442;-41
2023/04/16 18:11:07;;;;;;;3.35;1.50;;;;;;;21.22;33.14;102450.72;16101024;19;131186;-40
2023/04/16 18:16:30;;;;;;;2.55;1.20;;;;;;;21.20;33.12;102467.63;16104417;19;130407;-46
2023/04/16 18:21:51;;;;;;;5.15;1.60;;;;;;;21.17;33.33;102467.25;16104449;19;129703;-41
2023/04/16 18:27:13;;;;;;;3.22;1.70;;;;;;;21.13;33.15;102477.97;16102997;19;131509;-41
2023/04/16 18:32:37;;;;;;;4.07;1.73;;;;;;;21.09;33.14;102482.28;16103450;19;129523;-40
2023/04/16 18:38:10;;;;;;;1.95;1.38;;;;;;;21.12;32.97;102484.63;16106123;19;130181;-41
2023/04/16 18:43:32;;;;;;;4.25;1.55;;;;;;;21.33;32.84;102490.88;16102183;19;130175;-41
2023/04/16 18:48:53;;;;;;;2.08;1.50;;;;;;;21.54;32.91;102492.44;16108353;19;131164;-43
2023/04/16 18:54:15;;;;;;;12.18;2.15;;;;;;;21.74;32.81;102492.25;16116995;19;131042;-40
2023/04/16 18:59:37;;;;;;;13.65;2.17;;;;;;;22.01;32.64;102491.09;16122904;19;129232;-41
2023/04/16 19:04:59;;;;;;;18.65;2.65;;;;;;;22.23;32.47;102488.75;16123767;19;135109;-39
2023/04/16 19:10:21;;;;;;;18.23;2.60;;;;;;;22.43;32.52;102492.13;16121535;19;129970;-40
2023/04/16 19:15:43;;;;;;;21.98;2.97;;;;;;;22.56;32.02;102493.91;16123279;19;129338;-40
2023/04/16 19:21:05;;;;;;;20.92;2.33;;;;;;;22.70;32.17;102497.34;16121894;19;130374;-40
2023/04/16 19:26:27;;;;;;;15.20;3.10;;;;;;;22.83;31.72;102504.66;16121601;19;130229;-39
2023/04/16 19:31:50;;;;;;;8.70;2.33;;;;;;;22.92;31.71;102499.63;16120761;19;130389;-39
2023/04/16 19:37:12;;;;;;;9.57;2.35;;;;;;;22.97;31.61;102496.13;16120395;19;129993;-39
2023/04/16 19:42:34;;;;;;;10.07;2.45;;;;;;;23.00;31.53;102507.69;16120565;19;130820;-42
2023/04/16 19:47:56;;;;;;;12.98;2.63;;;;;;;22.99;31.85;102500.41;16122487;19;130243;-39
2023/04/16 19:53:17;;;;;;;7.85;2.00;;;;;;;22.91;32.13;102500.72;16123177;19;131807;-39
2023/04/16 19:58:39;;;;;;;15.77;2.70;;;;;;;22.80;31.71;102505.16;16121544;19;130502;-40
2023/04/16 20:04:01;;;;;;;10.13;2.25;;;;;;;22.70;32.21;102510.47;16117496;19;131818;-41
2023/04/16 20:09:24;;;;;;;9.35;2.60;;;;;;;22.59;32.35;102510.16;16117998;19;130158;-40
2023/04/16 20:14:46;;;;;;;6.72;2.78;;;;;;;22.47;32.67;102516.78;16117149;19;130189;-41
2023/04/16 20:20:09;;;;;;;9.98;2.75;;;;;;;22.31;32.88;102516.31;16120214;19;129676;-42
2023/04/16 20:25:31;;;;;;;9.77;2.42;;;;;;;22.19;32.81;102518.13;16116429;19;129715;-40
2023/04/16 20:30:53;;;;;;;9.02;2.83;;;;;;;22.05;32.73;102520.22;16117795;19;130707;-45
2023/04/16 20:36:15;;;;;;;4.65;2.33;;;;;;;21.93;33.06;102525.69;16115973;19;129639;-41
2023/04/16 20:41:42;;;;;;;7.47;2.83;;;;;;;21.80;33.24;102508.03;16116286;19;130472;-40
2023/04/16 20:47:11;;;;;;;9.27;2.70;;;;;;;21.70;33.46;102512.44;16116170;19;133225;-42
2023/04/16 20:52:33;;;;;;;8.35;2.65;;;;;;;21.58;33.85;102510.41;16116918;19;129720;-44
2023/04/16 20:57:55;;;;;;;8.60;2.70;;;;;;;21.49;33.59;102497.81;16115652;19;129424;-40
2023/04/16 21:03:18;;;;;;;6.82;2.75;;;;;;;21.40;33.95;102496.38;16114076;19;130309;-41
2023/04/16 21:08:40;;;;;;;7.90;3.08;;;;;;;21.30;34.08;102491.31;16114513;19;130002;-39
2023/04/16 21:14:02;;;;;;;12.65;2.80;;;;;;;21.19;34.20;102495.69;16115783;19;130993;-40
2023/04/16 21:19:24;;;;;;;15.23;3.40;;;;;;;21.11;33.90;102494.03;16114036;19;133680;-40
2023/04/16 21:24:46;;;;;;;8.48;3.25;;;;;;;21.02;34.19;102496.25;16114511;19;131149;-41
2023/04/16 21:30:08;;;;;;;7.78;2.53;;;;;;;20.96;34.12;102487.94;16116665;19;129749;-41
2023/04/16 21:35:31;;;;;;;7.88;3.00;;;;;;;20.85;34.28;102495.94;16108447;19;129536;-39
2023/04/16 21:40:54;;;;;;;8.57;3.17;;;;;;;20.79;34.05;102490.41;16101019;19;129826;-40
2023/04/16 21:46:16;;;;;;;7.20;2.78;;;;;;;20.72;34.11;102502.41;16105292;19;131846;-39
2023/04/16 21:51:38;;;;;;;5.88;3.20;;;;;;;20.64;34.58;102497.06;16103749;19;130274;-42
2023/04/16 21:57:01;;;;;;;6.00;3.28;;;;;;;20.59;34.04;102506.09;16109469;19;129522;-40
2023/04/16 22:02:23;;;;;;;4.95;3.30;;;;;;;20.52;34.66;102496.94;16108010;19;131130;-44
2023/04/16 22:07:45;;;;;;;5.90;3.22;;;;;;;20.47;34.21;102488.38;16097456;19;129799;-40
2023/04/16 22:13:11;;;;;;;8.07;3.53;;;;;;;20.41;34.44;102487.34;16102810;19;130095;-40
2023/04/16 22:18:33;;;;;;;5.93;3.33;;;;;;;20.38;34.39;102487.78;16106208;19;130679;-42
2023/04/16 22:23:55;;;;;;;6.70;3.45;;;;;;;20.33;34.42;102489.50;16111183;19;129768;-39
2023/04/16 22:29:16;;;;;;;5.57;3.20;;;;;;;20.28;34.53;102488.28;16121461;19;129293;-40
2023/04/16 22:34:38;;;;;;;5.88;3.10;;;;;;;20.23;34.64;102482.50;16127411;19;129778;-40
2023/04/16 22:40:00;;;;;;;6.35;3.63;;;;;;;20.19;34.57;102484.00;16130321;19;131513;-41
2023/04/16 22:45:22;;;;;;;6.97;3.58;;;;;;;20.16;34.82;102480.81;16127815;19;129658;-41
2023/04/16 22:50:47;;;;;;;6.07;4.00;;;;;;;20.13;34.38;102490.44;16126850;19;132999;-42
2023/04/16 22:56:09;;;;;;;8.20;4.17;;;;;;;20.09;34.44;102478.06;16125287;19;130415;-41
2023/04/16 23:01:32;;;;;;;4.50;3.45;;;;;;;20.05;34.75;102482.38;16125691;19;130675;-40
2023/04/16 23:06:55;;;;;;;8.18;4.13;;;;;;;20.03;34.60;102484.50;16122880;19;129368;-40
2023/04/16 23:12:16;;;;;;;5.40;3.88;;;;;;;19.99;34.66;102481.28;16126631;19;130424;-43
2023/04/16 23:17:38;;;;;;;8.90;4.00;;;;;;;19.95;34.88;102489.16;16125652;19;129531;-41
2023/04/16 23:23:00;;;;;;;7.07;4.00;;;;;;;19.92;34.72;102492.41;16122816;19;130741;-42
2023/04/16 23:28:22;;;;;;;5.13;4.00;;;;;;;19.89;34.54;102489.19;16125534;19;129989;-40
2023/04/16 23:33:44;;;;;;;5.60;3.70;;;;;;;19.86;34.58;102487.72;16123968;19;133932;-41
2023/04/16 23:39:06;;;;;;;5.85;3.67;;;;;;;19.83;34.68;102489.00;16120459;19;132123;-42
2023/04/16 23:44:27;;;;;;;6.10;3.90;;;;;;;19.81;34.93;102490.28;16123383;19;131821;-40
2023/04/16 23:49:49;;;;;;;7.80;4.35;;;;;;;19.79;34.75;102486.88;16118256;19;130959;-41
2023/04/16 23:55:11;;;;;;;5.43;4.05;;;;;;;19.76;35.02;102487.31;16123046;19;130772;-41
